Time;durP1;ratioP1;P1;durP2;ratioP2;P2;SDS_P1;SDS_P2;PMS_P1;PMS_P2;Temp;Humidity;BMP_temperature;BMP_pressure;BME280_temperature;BME280_humidity;BME280_pressure;Samples;Min_cycle;Max_cycle;Signal;HPM_P1;HPM_P2
2021/03/16 00:00:07;;;;;;;18.27;13.85;;;;;;;12.09;54.08;98720.00;1765440;78;21182;-70
2021/03/16 00:02:53;;;;;;;16.27;13.65;;;;;;;12.06;54.10;98711.91;1773392;79;21604;-70
2021/03/16 00:05:22;;;;;;;19.17;14.55;;;;;;;12.06;54.12;98711.10;1778530;78;21420;-69
2021/03/16 00:07:50;;;;;;;18.50;14.90;;;;;;;12.05;54.13;98705.45;1786380;78;21420;-70
2021/03/16 00:10:18;;;;;;;16.73;13.70;;;;;;;12.05;54.14;98700.94;1767051;77;21150;-70
2021/03/16 00:12:46;;;;;;;17.70;14.90;;;;;;;12.05;54.13;98700.94;1777504;77;21146;-72
2021/03/16 00:15:14;;;;;;;16.20;14.18;;;;;;;12.06;54.14;98700.45;1776085;79;22645;-69
2021/03/16 00:17:42;;;;;;;17.30;13.78;;;;;;;12.05;54.15;98690.30;1789210;79;21202;-70
2021/03/16 00:20:11;;;;;;;18.87;14.18;;;;;;;12.06;54.12;98698.60;1764857;78;21151;-71
2021/03/16 00:22:39;;;;;;;18.57;13.50;;;;;;;12.06;54.13;98703.12;1769876;78;21182;-69
2021/03/16 00:25:09;;;;;;;17.48;13.25;;;;;;;12.07;54.13;98708.73;1763526;79;21210;-69
2021/03/16 00:27:37;;;;;;;17.15;14.38;;;;;;;12.06;54.12;98711.91;1773124;79;21356;-69
2021/03/16 00:30:06;;;;;;;16.65;13.13;;;;;;;12.06;54.13;98707.11;1767622;79;21167;-71
2021/03/16 00:32:34;;;;;;;18.90;14.80;;;;;;;12.06;54.12;98709.77;1782492;79;21756;-71
2021/03/16 00:35:03;;;;;;;16.32;13.60;;;;;;;12.07;54.11;98710.06;1762942;79;21162;-71
2021/03/16 00:37:31;;;;;;;16.02;13.45;;;;;;;11.99;54.11;98699.94;1776069;79;21182;-69
2021/03/16 00:39:59;;;;;;;16.97;13.38;;;;;;;12.06;54.11;98704.45;1767235;78;21365;-70
2021/03/16 00:42:27;;;;;;;15.32;13.58;;;;;;;12.06;54.11;98704.45;1797590;79;21189;-71
2021/03/16 00:44:54;;;;;;;19.00;15.10;;;;;;;12.06;54.11;98714.58;1772522;78;21498;-70
2021/03/16 00:47:22;;;;;;;16.40;13.32;;;;;;;12.07;54.12;98711.39;1783159;79;21561;-71
2021/03/16 00:49:50;;;;;;;16.73;13.78;;;;;;;12.06;54.12;98707.92;1774321;78;21210;-70
2021/03/16 00:52:17;;;;;;;18.25;13.22;;;;;;;12.06;54.12;98707.11;1793688;78;21362;-72
2021/03/16 00:54:44;;;;;;;17.25;13.13;;;;;;;12.06;54.10;98705.26;1811106;78;21157;-71
2021/03/16 00:57:13;;;;;;;18.35;12.70;;;;;;;12.06;54.11;98707.92;1791206;78;21695;-70
2021/03/16 00:59:42;;;;;;;16.25;13.65;;;;;;;12.05;54.11;98708.93;1818268;78;21152;-70
2021/03/16 01:02:09;;;;;;;15.85;13.72;;;;;;;12.06;54.09;98711.91;1813447;77;21663;-71
2021/03/16 01:04:37;;;;;;;16.60;14.03;;;;;;;12.05;54.12;98708.93;1807464;78;21361;-71
2021/03/16 01:07:05;;;;;;;17.05;13.08;;;;;;;12.06;54.11;98711.10;1810066;78;21164;-71
2021/03/16 01:09:34;;;;;;;16.20;13.83;;;;;;;12.06;54.11;98705.78;1797580;78;21165;-70
2021/03/16 01:12:02;;;;;;;17.17;13.90;;;;;;;12.06;54.10;98707.11;1790113;78;21153;-70
2021/03/16 01:14:30;;;;;;;16.50;13.90;;;;;;;12.06;54.10;98697.80;1806471;78;21161;-70
2021/03/16 01:16:57;;;;;;;16.25;13.45;;;;;;;12.05;54.10;98691.63;1797451;78;21200;-70
2021/03/16 01:19:25;;;;;;;19.02;13.83;;;;;;;12.05;54.12;98694.81;1803828;78;21098;-71
2021/03/16 01:21:53;;;;;;;18.10;14.03;;;;;;;12.06;54.10;98695.13;1803858;77;21103;-70
2021/03/16 01:24:20;;;;;;;16.20;13.78;;;;;;;12.04;54.11;98692.66;1819570;77;21180;-71
2021/03/16 01:26:50;;;;;;;18.52;13.60;;;;;;;12.05;54.11;98692.14;1813795;78;21157;-72
2021/03/16 01:29:17;;;;;;;15.90;12.95;;;;;;;12.05;54.12;98686.83;1814396;78;21691;-71
2021/03/16 01:31:44;;;;;;;19.27;13.15;;;;;;;12.05;54.11;98688.16;1825670;78;23489;-71
2021/03/16 01:34:59;;;;;;;17.85;13.05;;;;;;;12.05;54.11;98692.95;1796246;78;21155;-70
2021/03/16 01:37:28;;;;;;;16.27;13.43;;;;;;;12.04;54.10;98688.67;1796579;78;28754;-71
2021/03/16 01:39:59;;;;;;;17.45;13.45;;;;;;;12.02;54.13;98685.91;1800732;78;21156;-70
2021/03/16 01:42:26;;;;;;;18.17;13.70;;;;;;;12.00;54.15;98678.94;1804564;77;21819;-70
2021/03/16 01:44:53;;;;;;;18.80;14.15;;;;;;;12.00;54.16;98682.12;1797070;77;21189;-71
2021/03/16 01:47:22;;;;;;;17.35;13.62;;;;;;;12.02;54.15;98685.91;1799076;77;21181;-71
2021/03/16 01:49:50;;;;;;;17.12;13.53;;;;;;;12.01;54.16;98685.08;1813434;77;21189;-72
2021/03/16 01:52:18;;;;;;;17.52;13.48;;;;;;;12.01;54.17;98681.08;1815745;78;21122;-70
2021/03/16 01:54:48;;;;;;;17.57;14.38;;;;;;;12.00;54.14;98677.61;1747033;80;21810;-71
2021/03/16 01:57:15;;;;;;;17.02;13.13;;;;;;;12.00;54.16;98684.27;1807150;78;21157;-70
2021/03/16 02:00:04;;;;;;;15.98;13.53;;;;;;;12.00;54.16;98686.92;1795223;78;21134;-71
2021/03/16 02:02:50;;;;;;;18.62;13.93;;;;;;;12.00;54.16;98684.27;1789792;78;21141;-71
2021/03/16 02:05:40;;;;;;;15.90;13.25;;;;;;;11.99;54.18;98683.13;1789547;78;21663;-71
2021/03/16 02:08:43;;;;;;;15.95;13.28;;;;;;;11.97;54.20;98688.65;1792024;77;21264;-71
2021/03/16 02:11:49;;;;;;;15.98;13.48;;;;;;;11.97;54.23;98689.16;1790638;78;21182;-70
2021/03/16 02:15:17;;;;;;;16.35;13.50;;;;;;;11.96;54.26;98684.88;1796935;77;21167;-69
2021/03/16 02:18:07;;;;;;;16.23;12.58;;;;;;;11.92;54.30;98686.31;1801651;77;21166;-71
2021/03/16 02:21:11;;;;;;;14.73;12.53;;;;;;;11.88;54.35;98684.53;1789382;77;21126;-71
2021/03/16 02:24:09;;;;;;;15.85;12.90;;;;;;;11.86;54.40;98689.23;1803984;78;22277;-70
2021/03/16 02:27:16;;;;;;;15.08;13.10;;;;;;;11.86;54.43;98687.91;1799656;78;21606;-69
2021/03/16 02:30:05;;;;;;;15.75;13.40;;;;;;;11.84;54.45;98680.64;1805987;77;21181;-70
2021/03/16 02:32:53;;;;;;;14.93;12.85;;;;;;;11.83;54.50;98682.98;1794794;78;21175;-71
2021/03/16 02:35:40;;;;;;;14.65;12.43;;;;;;;11.83;54.54;98686.16;1794694;78;21114;-69
2021/03/16 02:38:31;;;;;;;15.58;12.10;;;;;;;11.81;54.52;98675.19;1799566;77;21185;-71
2021/03/16 02:41:19;;;;;;;14.97;12.30;;;;;;;11.81;54.52;98685.84;1806760;78;21173;-71
2021/03/16 02:44:05;;;;;;;13.75;12.03;;;;;;;11.82;54.54;98681.36;1790295;78;21153;-71
2021/03/16 02:46:52;;;;;;;17.02;13.88;;;;;;;11.81;54.54;98677.04;1796851;78;21158;-71
2021/03/16 02:49:43;;;;;;;14.73;12.15;;;;;;;11.81;54.55;98683.69;1807733;78;21160;-71
2021/03/16 02:52:28;;;;;;;15.72;12.33;;;;;;;11.82;54.54;98688.01;1792265;78;21183;-71
2021/03/16 02:55:14;;;;;;;14.53;12.60;;;;;;;11.81;54.54;98685.02;1776652;79;21166;-70
2021/03/16 02:58:01;;;;;;;14.25;11.70;;;;;;;11.81;54.53;98689.02;1786893;77;21182;-69
2021/03/16 03:00:50;;;;;;;14.28;11.95;;;;;;;11.81;54.52;98687.69;1768117;78;21590;-70
2021/03/16 03:03:37;;;;;;;16.12;13.45;;;;;;;11.81;54.54;98683.69;1774599;77;21126;-70
2021/03/16 03:06:23;;;;;;;14.38;12.05;;;;;;;11.82;54.52;98684.02;1770679;79;21387;-69
2021/03/16 03:09:12;;;;;;;14.03;12.53;;;;;;;11.81;54.54;98681.03;1789793;77;21175;-71
2021/03/16 03:12:00;;;;;;;14.25;12.60;;;;;;;11.81;54.51;98675.70;1797904;79;21151;-70
2021/03/16 03:14:47;;;;;;;13.30;11.15;;;;;;;11.82;54.51;98677.36;1786400;79;21127;-68
2021/03/16 03:17:34;;;;;;;14.58;12.05;;;;;;;11.81;54.52;98674.37;1773264;79;21631;-70
2021/03/16 03:20:20;;;;;;;13.25;11.65;;;;;;;11.80;54.48;98666.07;1784492;77;21202;-70
2021/03/16 03:23:20;;;;;;;13.55;12.10;;;;;;;11.79;54.51;98669.25;1770048;79;21167;-70
2021/03/16 03:26:15;;;;;;;13.83;12.33;;;;;;;11.79;54.50;98665.78;1783925;77;21159;-70
2021/03/16 03:28:49;;;;;;;14.68;11.80;;;;;;;11.82;54.52;98664.06;1766213;79;28221;-72
2021/03/16 03:31:38;;;;;;;13.78;11.73;;;;;;;11.79;54.49;98673.77;1728397;81;21671;-70
2021/03/16 03:34:24;;;;;;;14.03;11.95;;;;;;;11.78;54.49;98669.45;1749951;81;21374;-70
2021/03/16 03:37:11;;;;;;;13.45;11.43;;;;;;;11.78;54.49;98672.95;1752340;81;21675;-70
2021/03/16 03:39:57;;;;;;;13.83;10.70;;;;;;;11.77;54.49;98673.95;1772399;80;21666;-69
2021/03/16 03:42:43;;;;;;;14.33;12.45;;;;;;;11.77;54.47;98677.95;1763264;80;21101;-70
2021/03/16 03:45:29;;;;;;;12.23;10.78;;;;;;;11.77;54.48;98672.63;1770750;80;21622;-71
2021/03/16 03:48:17;;;;;;;12.10;10.80;;;;;;;11.77;54.48;98681.13;1766978;81;21227;-72
2021/03/16 03:51:05;;;;;;;12.95;10.53;;;;;;;11.77;54.45;98678.47;1746068;80;21228;-70
2021/03/16 03:53:50;;;;;;;14.18;11.20;;;;;;;11.76;54.45;98683.47;1768061;80;21490;-70
2021/03/16 03:56:37;;;;;;;11.50;10.30;;;;;;;11.76;54.45;98678.14;1747999;81;21186;-71
2021/03/16 03:59:24;;;;;;;13.30;10.93;;;;;;;11.76;54.48;98684.31;1760451;81;21175;-70
2021/03/16 04:02:10;;;;;;;13.15;11.80;;;;;;;11.76;54.44;98678.14;1759557;81;21549;-71
2021/03/16 04:04:56;;;;;;;13.03;11.40;;;;;;;11.75;54.44;98675.19;1748105;81;21188;-72
2021/03/16 04:07:43;;;;;;;12.28;10.98;;;;;;;11.76;54.42;98670.16;1742217;81;21178;-71
2021/03/16 04:10:29;;;;;;;13.18;10.68;;;;;;;11.75;54.43;98670.68;1741728;81;21623;-71
2021/03/16 04:13:14;;;;;;;12.95;10.98;;;;;;;11.75;54.43;98665.88;1763922;81;21220;-71
2021/03/16 04:16:01;;;;;;;11.85;10.55;;;;;;;11.75;54.43;98664.55;1732601;81;21210;-70
2021/03/16 04:18:49;;;;;;;12.65;10.72;;;;;;;11.74;54.42;98668.22;1765620;81;21189;-71
2021/03/16 04:21:35;;;;;;;11.70;10.15;;;;;;;11.75;54.41;98665.88;1744872;82;21198;-69
2021/03/16 04:24:21;;;;;;;13.25;10.78;;;;;;;11.74;54.41;98669.06;1744244;82;21146;-70
2021/03/16 04:27:08;;;;;;;11.97;10.35;;;;;;;11.73;54.41;98666.59;1742254;81;22765;-70
2021/03/16 04:29:55;;;;;;;12.33;9.90;;;;;;;11.73;54.43;98670.58;1721159;82;21181;-70
2021/03/16 04:32:43;;;;;;;12.05;10.80;;;;;;;11.72;54.40;98671.07;1727574;82;21655;-70
2021/03/16 04:35:29;;;;;;;14.15;11.12;;;;;;;11.73;54.38;98671.91;1738659;82;21162;-70
2021/03/16 04:38:15;;;;;;;12.98;11.33;;;;;;;11.72;54.38;98667.08;1734816;82;21178;-69
2021/03/16 04:41:01;;;;;;;12.58;11.22;;;;;;;11.72;54.37;98671.59;1729119;82;21150;-70
2021/03/16 04:43:47;;;;;;;11.68;10.48;;;;;;;11.71;54.36;98671.30;1716768;82;22118;-70
2021/03/16 04:46:33;;;;;;;11.22;9.85;;;;;;;11.72;54.38;98674.25;1718196;82;21181;-69
2021/03/16 04:49:20;;;;;;;12.20;10.13;;;;;;;11.72;54.36;98683.56;1732376;82;21157;-69
2021/03/16 04:52:06;;;;;;;11.85;9.43;;;;;;;11.71;54.36;98678.76;1724847;82;21198;-70
2021/03/16 04:54:53;;;;;;;11.43;9.68;;;;;;;11.70;54.33;98676.30;1734178;82;21191;-70
2021/03/16 04:57:38;;;;;;;11.75;10.32;;;;;;;11.69;54.34;98678.14;1735546;82;21206;-70
2021/03/16 05:00:24;;;;;;;11.73;10.08;;;;;;;11.71;54.34;98681.42;1727868;82;21214;-71
2021/03/16 05:03:10;;;;;;;10.68;9.58;;;;;;;11.71;54.33;98682.75;1724666;82;21190;-69
2021/03/16 05:05:56;;;;;;;12.85;9.98;;;;;;;11.72;54.30;98680.91;1722412;82;21155;-70
2021/03/16 05:08:43;;;;;;;10.10;9.05;;;;;;;11.73;54.29;98686.55;1727450;82;21183;-70
2021/03/16 05:11:33;;;;;;;10.82;9.43;;;;;;;11.72;54.29;98683.56;1716636;82;21381;-71
2021/03/16 05:14:19;;;;;;;11.97;10.25;;;;;;;11.72;54.25;98688.37;1715901;82;21184;-71
2021/03/16 05:17:05;;;;;;;10.60;9.13;;;;;;;11.73;54.25;98678.56;1718835;82;21158;-72
2021/03/16 05:19:51;;;;;;;10.35;8.90;;;;;;;11.72;54.24;98687.03;1734847;82;21186;-71
2021/03/16 05:22:37;;;;;;;10.38;9.28;;;;;;;11.73;54.23;98684.70;1725039;82;21191;-71
2021/03/16 05:25:22;;;;;;;10.18;8.83;;;;;;;11.73;54.21;98682.04;1726968;82;21638;-71
2021/03/16 05:28:08;;;;;;;10.55;9.05;;;;;;;11.74;54.19;98686.35;1724527;81;21237;-72
2021/03/16 05:30:54;;;;;;;11.43;9.78;;;;;;;11.75;54.17;98694.62;1720299;82;21206;-70
2021/03/16 05:33:40;;;;;;;10.32;9.28;;;;;;;11.76;54.17;98686.97;1723649;82;21610;-72
2021/03/16 05:36:26;;;;;;;10.75;9.15;;;;;;;11.76;54.13;98689.63;1721766;81;21066;-72
2021/03/16 05:39:11;;;;;;;11.90;9.50;;;;;;;11.76;54.13;98684.31;1738191;82;21220;-72
2021/03/16 05:41:57;;;;;;;11.18;10.00;;;;;;;11.77;54.13;98687.27;1730675;82;21138;-71
2021/03/16 05:44:43;;;;;;;12.30;9.08;;;;;;;11.78;54.11;98693.39;1726289;82;21631;-72
2021/03/16 05:47:29;;;;;;;10.25;9.15;;;;;;;11.78;54.10;98699.56;1697957;82;21197;-75
2021/03/16 05:50:16;;;;;;;11.00;9.58;;;;;;;11.78;54.07;98692.06;1746358;81;21684;-74
2021/03/16 05:53:04;;;;;;;10.85;8.88;;;;;;;11.80;54.08;98686.03;1732648;82;21603;-73
2021/03/16 05:55:51;;;;;;;10.15;8.50;;;;;;;11.80;54.05;98700.17;1735072;82;21217;-72
2021/03/16 05:58:37;;;;;;;10.43;9.28;;;;;;;11.82;54.03;98706.63;1732423;82;21193;-73
2021/03/16 06:01:23;;;;;;;9.80;8.80;;;;;;;11.84;54.02;98713.06;1726384;82;21122;-72
2021/03/16 06:04:09;;;;;;;9.88;8.80;;;;;;;11.84;54.00;98712.58;1711035;82;21162;-71
2021/03/16 06:06:57;;;;;;;10.03;9.03;;;;;;;11.85;53.97;98706.21;1710932;82;21259;-71
2021/03/16 06:09:45;;;;;;;10.88;8.78;;;;;;;11.86;53.95;98707.87;1719017;82;21179;-71
2021/03/16 06:12:34;;;;;;;10.72;8.70;;;;;;;11.87;53.91;98712.67;1735659;82;21190;-72
2021/03/16 06:15:22;;;;;;;11.40;9.20;;;;;;;11.88;53.87;98715.63;1725732;82;21178;-72
2021/03/16 06:18:12;;;;;;;11.50;9.78;;;;;;;11.89;53.84;98716.79;1713664;82;21206;-71
2021/03/16 06:21:03;;;;;;;17.52;11.30;;;;;;;11.90;53.83;98713.13;1718473;82;21218;-70
2021/03/16 06:23:57;;;;;;;23.47;12.75;;;;;;;11.95;56.81;98706.66;1724348;82;21190;-77
2021/03/16 06:26:48;;;;;;;17.27;11.88;;;;;;;12.08;56.35;98698.41;1716433;82;21356;-77
2021/03/16 06:29:43;;;;;;;18.95;11.83;;;;;;;12.15;56.64;98701.39;1729062;82;21197;-77
2021/03/16 06:32:35;;;;;;;20.55;11.43;;;;;;;12.22;56.59;98697.38;1764787;80;21206;-75
2021/03/16 06:35:25;;;;;;;15.95;11.30;;;;;;;12.23;56.47;98695.04;1764543;80;21644;-74
2021/03/16 06:38:11;;;;;;;15.40;11.40;;;;;;;12.26;56.39;98705.78;1777389;80;21142;-75
2021/03/16 06:41:18;;;;;;;17.52;11.88;;;;;;;12.26;56.28;98721.24;1757655;79;21194;-75
2021/03/16 06:44:06;;;;;;;20.35;12.15;;;;;;;12.28;56.16;98740.50;1748171;80;21146;-76
2021/03/16 06:46:58;;;;;;;17.52;12.13;;;;;;;12.28;56.05;98732.51;1777448;80;21102;-75
2021/03/16 06:49:45;;;;;;;19.02;13.20;;;;;;;12.30;55.93;98723.80;1779952;80;21418;-76
2021/03/16 06:52:33;;;;;;;16.05;11.68;;;;;;;12.31;55.79;98736.11;1773600;80;21184;-76
2021/03/16 06:55:20;;;;;;;16.90;11.22;;;;;;;12.33;55.70;98720.74;1780789;80;21154;-76
2021/03/16 06:58:07;;;;;;;18.00;12.10;;;;;;;12.35;55.55;98726.69;1764208;80;21184;-74
2021/03/16 07:01:20;;;;;;;16.55;12.60;;;;;;;12.38;55.45;98731.61;1777246;80;21149;-74
2021/03/16 07:04:17;;;;;;;17.92;11.95;;;;;;;12.40;55.34;98727.42;1755765;80;21729;-75
2021/03/16 07:07:03;;;;;;;16.00;11.55;;;;;;;12.41;55.20;98737.03;1744811;80;21161;-75
2021/03/16 07:09:50;;;;;;;15.98;11.63;;;;;;;12.43;55.07;98720.33;1769065;80;21724;-75
2021/03/16 07:12:36;;;;;;;17.17;11.78;;;;;;;12.45;54.96;98716.95;1769171;80;21177;-76
2021/03/16 07:15:23;;;;;;;16.17;11.08;;;;;;;12.50;54.85;98721.16;1765539;80;21177;-76
2021/03/16 07:18:11;;;;;;;15.65;11.03;;;;;;;12.53;54.72;98723.91;1777409;80;21698;-74
2021/03/16 07:20:59;;;;;;;14.53;10.82;;;;;;;12.58;54.63;98732.12;1770544;80;21187;-76
2021/03/16 07:24:00;;;;;;;16.20;11.28;;;;;;;12.61;54.49;98718.38;1778965;80;21189;-76
2021/03/16 07:26:45;;;;;;;13.03;10.70;;;;;;;12.66;54.39;98716.44;1776926;80;21106;-74
2021/03/16 07:29:33;;;;;;;13.43;10.82;;;;;;;12.70;54.28;98729.65;1765663;80;21141;-76
2021/03/16 07:32:19;;;;;;;14.80;11.10;;;;;;;12.72;54.19;98719.08;1765328;80;21798;-76
2021/03/16 07:35:08;;;;;;;14.40;10.38;;;;;;;12.77;54.06;98713.15;1770243;80;21145;-76
2021/03/16 07:37:55;;;;;;;13.22;10.60;;;;;;;12.81;53.97;98708.23;1749178;80;21192;-75
2021/03/16 07:40:42;;;;;;;14.98;10.50;;;;;;;12.85;53.88;98701.45;1748082;80;21231;-75
2021/03/16 07:43:33;;;;;;;13.15;10.38;;;;;;;12.89;53.78;98700.00;1735470;80;21603;-77
2021/03/16 07:46:20;;;;;;;13.32;10.75;;;;;;;12.93;53.68;98693.23;1781213;80;21779;-76
2021/03/16 07:49:06;;;;;;;13.18;9.58;;;;;;;12.97;53.59;98697.92;1765619;80;21186;-77
2021/03/16 07:51:53;;;;;;;15.72;10.93;;;;;;;13.01;53.53;98686.33;1771099;80;21177;-75
2021/03/16 07:54:45;;;;;;;15.98;9.98;;;;;;;13.04;53.41;98696.58;1753484;80;21578;-74
2021/03/16 07:57:31;;;;;;;14.45;10.53;;;;;;;13.08;53.34;98697.80;1736419;80;21183;-76
2021/03/16 08:00:29;;;;;;;13.50;10.30;;;;;;;13.12;53.26;98692.87;1773015;80;22638;-76
2021/03/16 08:03:24;;;;;;;12.82;9.85;;;;;;;13.14;53.20;98696.95;1775226;80;21153;-76
2021/03/16 08:06:26;;;;;;;13.65;10.30;;;;;;;13.16;53.12;98682.89;1756508;80;21154;-75
2021/03/16 08:09:22;;;;;;;11.38;9.75;;;;;;;13.19;53.05;98697.64;1747691;79;21138;-75
2021/03/16 08:12:29;;;;;;;12.75;10.10;;;;;;;13.22;52.96;98697.23;1776079;80;21134;-74
2021/03/16 08:15:18;;;;;;;12.53;10.45;;;;;;;13.26;52.91;98689.63;1753764;80;21224;-76
2021/03/16 08:18:08;;;;;;;12.05;9.78;;;;;;;13.28;52.84;98684.91;1752417;80;21201;-75
2021/03/16 08:21:11;;;;;;;13.93;10.38;;;;;;;13.32;52.81;98686.15;1768829;80;21602;-76
2021/03/16 08:24:12;;;;;;;11.05;9.08;;;;;;;13.35;52.73;98692.41;1774048;80;21180;-74
2021/03/16 08:26:58;;;;;;;13.78;9.55;;;;;;;13.39;52.70;98680.80;1774333;79;21134;-75
2021/03/16 08:29:50;;;;;;;12.88;9.28;;;;;;;13.42;52.63;98684.36;1773119;80;21644;-76
2021/03/16 08:32:36;;;;;;;12.45;9.28;;;;;;;13.45;52.63;98684.76;1759578;80;21177;-75
2021/03/16 08:35:23;;;;;;;10.48;8.45;;;;;;;13.50;52.62;98688.11;1769656;80;21133;-75
2021/03/16 08:38:10;;;;;;;15.05;10.38;;;;;;;13.55;52.57;98693.64;1773131;80;21133;-75
2021/03/16 08:41:08;;;;;;;12.53;9.63;;;;;;;13.60;52.54;98691.16;1731756;81;21185;-74
2021/03/16 08:43:54;;;;;;;10.95;9.08;;;;;;;13.65;52.49;98688.65;1776707;80;22091;-75
2021/03/16 08:46:44;;;;;;;11.18;9.03;;;;;;;13.70;52.50;98686.70;1765939;80;21632;-76
2021/03/16 08:49:41;;;;;;;12.47;9.23;;;;;;;13.75;52.48;98682.84;1747803;80;21204;-76
2021/03/16 08:52:33;;;;;;;12.07;8.78;;;;;;;13.73;52.40;98671.56;1757332;79;21146;-78
2021/03/16 08:55:35;;;;;;;11.03;9.18;;;;;;;13.86;52.37;98690.17;1758099;80;21090;-77
2021/03/16 08:58:26;;;;;;;10.13;8.88;;;;;;;13.92;52.37;98694.65;1768935;80;21210;-77
2021/03/16 09:01:32;;;;;;;9.88;7.85;;;;;;;13.99;52.35;98693.28;1754869;80;21193;-77
2021/03/16 09:04:20;;;;;;;9.70;8.23;;;;;;;14.05;52.28;98692.41;1773683;79;21162;-76
2021/03/16 09:07:10;;;;;;;10.93;8.48;;;;;;;14.11;52.19;98682.72;1761287;80;21530;-75
2021/03/16 09:10:18;;;;;;;10.13;7.97;;;;;;;14.17;52.08;98681.84;1763076;79;21138;-75
2021/03/16 09:13:12;;;;;;;9.50;7.30;;;;;;;14.24;52.03;98683.15;1754045;80;21205;-77
2021/03/16 09:16:01;;;;;;;10.98;8.03;;;;;;;14.31;52.12;98679.39;1756341;80;21673;-78
2021/03/16 09:18:49;;;;;;;11.50;7.95;;;;;;;14.40;52.36;98683.12;1734732;81;21667;-77
2021/03/16 09:21:40;;;;;;;8.53;7.45;;;;;;;14.49;52.37;98689.30;1728734;82;21529;-78
2021/03/16 09:24:40;;;;;;;9.53;7.42;;;;;;;14.59;52.38;98682.67;1702029;83;21182;-76
2021/03/16 09:27:25;;;;;;;10.10;7.65;;;;;;;14.68;52.14;98678.66;1733063;82;21175;-77
2021/03/16 09:30:18;;;;;;;9.63;7.78;;;;;;;14.79;51.83;98687.82;1745418;81;21236;-76
2021/03/16 09:33:18;;;;;;;10.13;7.67;;;;;;;14.87;51.57;98674.99;1738816;82;21686;-77
2021/03/16 09:36:10;;;;;;;10.15;7.70;;;;;;;14.97;51.32;98675.81;1723576;82;21184;-78
2021/03/16 09:39:06;;;;;;;10.43;8.08;;;;;;;15.05;51.17;98674.17;1725942;82;21186;-77
2021/03/16 09:41:59;;;;;;;10.63;7.47;;;;;;;15.20;51.04;98671.12;1804757;79;28172;-76
2021/03/16 09:44:38;;;;;;;8.95;7.05;;;;;;;15.26;51.05;98684.10;1761843;80;21224;-76
2021/03/16 09:47:28;;;;;;;7.97;7.17;;;;;;;15.34;51.04;98678.47;1704797;82;22166;-76
2021/03/16 09:50:19;;;;;;;11.00;7.62;;;;;;;15.43;50.76;98683.81;1734916;82;27080;-77
2021/03/16 09:53:00;;;;;;;10.40;7.22;;;;;;;15.52;50.43;98682.97;1754888;80;21856;-76
2021/03/16 09:55:36;;;;;;;8.33;6.85;;;;;;;15.60;50.38;98689.87;1724157;80;21112;-77
2021/03/16 09:58:05;;;;;;;9.63;7.28;;;;;;;15.66;50.23;98685.75;1743551;80;21180;-76
2021/03/16 10:00:36;;;;;;;9.40;7.15;;;;;;;15.73;49.96;98683.02;1755904;80;21612;-77
2021/03/16 10:03:12;;;;;;;8.55;6.70;;;;;;;15.79;49.94;98691.48;1752230;80;21629;-76
2021/03/16 10:05:46;;;;;;;8.23;6.60;;;;;;;15.87;49.88;98693.02;1737624;80;21148;-76
2021/03/16 10:10:48;;;;;;;8.15;7.15;;;;;;;16.03;49.72;98700.92;1795816;77;28276;-79
2021/03/16 10:13:46;;;;;;;;;;;;;;;;;;;;;
2021/03/16 10:16:13;;;;;;;8.25;6.55;;;;;;;16.12;49.85;98711.61;1802107;78;28542;-75
2021/03/16 10:18:45;;;;;;;8.68;6.55;;;;;;;16.15;49.73;98721.88;1786021;79;21216;-76
2021/03/16 10:21:16;;;;;;;7.95;6.15;;;;;;;16.20;49.53;98713.14;1783079;80;21248;-77
2021/03/16 10:23:45;;;;;;;8.38;6.92;;;;;;;16.23;49.23;98704.13;1786565;80;21041;-76
2021/03/16 10:26:13;;;;;;;7.92;6.87;;;;;;;16.26;49.00;98706.86;1777147;79;21174;-76
2021/03/16 10:28:42;;;;;;;8.58;6.40;;;;;;;16.28;48.92;98712.80;1813563;78;21600;-76
2021/03/16 10:31:20;;;;;;;8.10;7.17;;;;;;;16.28;48.87;98712.80;1797856;79;21151;-76
2021/03/16 10:33:53;;;;;;;8.35;6.62;;;;;;;16.27;48.84;98713.87;1764800;80;22513;-76
2021/03/16 10:36:22;;;;;;;7.80;6.25;;;;;;;16.24;48.89;98706.27;1769500;79;21223;-75
2021/03/16 10:38:50;;;;;;;7.70;6.22;;;;;;;16.21;48.89;98700.05;1773212;80;21152;-76
2021/03/16 10:41:20;;;;;;;8.73;5.87;;;;;;;16.18;48.90;98702.65;1812664;79;21164;-76
2021/03/16 10:43:48;;;;;;;10.50;6.97;;;;;;;16.18;48.93;98708.54;1782313;79;21151;-77
2021/03/16 10:46:16;;;;;;;8.60;6.37;;;;;;;16.12;49.03;98707.59;1768476;80;21645;-75
2021/03/16 10:48:44;;;;;;;7.65;6.58;;;;;;;16.10;49.12;98705.67;1793541;79;21178;-76
2021/03/16 10:51:12;;;;;;;7.58;6.12;;;;;;;16.06;49.14;98701.28;1779182;79;21111;-77
2021/03/16 10:53:40;;;;;;;7.97;6.55;;;;;;;16.04;49.21;98701.23;1778819;79;21572;-77
2021/03/16 10:56:09;;;;;;;8.83;6.83;;;;;;;16.01;49.27;98697.66;1785980;79;21175;-78
2021/03/16 10:58:39;;;;;;;10.95;7.53;;;;;;;15.98;49.33;98694.12;1785318;79;21232;-78
2021/03/16 11:01:15;;;;;;;8.95;6.47;;;;;;;15.95;49.38;98694.03;1800865;79;21305;-78
2021/03/16 11:03:45;;;;;;;8.85;6.60;;;;;;;15.92;49.44;98683.26;1787942;79;21133;-79
2021/03/16 11:06:15;;;;;;;9.33;6.47;;;;;;;15.90;49.43;98685.35;1796199;79;21171;-80
2021/03/16 11:08:50;;;;;;;9.43;6.20;;;;;;;15.88;49.45;98685.30;1762959;80;21670;-78
2021/03/16 11:11:21;;;;;;;9.18;6.50;;;;;;;15.88;49.46;98686.11;1749182;80;21229;-77
2021/03/16 11:13:54;;;;;;;8.08;5.92;;;;;;;15.87;49.50;98678.30;1732908;80;21071;-78
2021/03/16 11:16:28;;;;;;;7.35;6.17;;;;;;;15.86;49.53;98680.16;1719584;82;21139;-78
2021/03/16 11:19:02;;;;;;;10.05;6.70;;;;;;;15.87;49.57;98671.06;1742076;81;22683;-78
2021/03/16 11:21:33;;;;;;;7.65;5.87;;;;;;;15.92;49.54;98671.20;1713550;81;21162;-78
2021/03/16 11:24:04;;;;;;;8.95;6.22;;;;;;;15.99;49.40;98668.41;1734418;82;22203;-76
2021/03/16 11:26:36;;;;;;;8.73;6.87;;;;;;;16.07;49.26;98665.92;1713354;82;21175;-77
2021/03/16 11:29:10;;;;;;;9.15;6.53;;;;;;;16.12;49.15;98663.39;1730812;82;21165;-77
2021/03/16 11:31:45;;;;;;;8.98;6.33;;;;;;;16.19;49.03;98661.42;1739726;81;21147;-78
2021/03/16 11:34:39;;;;;;;8.88;6.97;;;;;;;16.23;48.91;98659.11;1699598;82;21184;-78
2021/03/16 11:37:43;;;;;;;8.93;6.25;;;;;;;16.24;48.86;98662.06;1717868;82;21187;-77
2021/03/16 11:40:33;;;;;;;7.50;6.42;;;;;;;16.21;48.87;98657.98;1748569;81;21177;-75
2021/03/16 11:43:24;;;;;;;7.47;5.75;;;;;;;16.22;48.87;98656.12;1719794;82;21146;-77
2021/03/16 11:46:15;;;;;;;9.60;6.12;;;;;;;16.22;48.87;98651.56;1755119;80;21203;-76
2021/03/16 11:49:08;;;;;;;7.70;5.58;;;;;;;16.21;48.90;98651.82;1749823;80;21527;-75
2021/03/16 11:52:00;;;;;;;8.28;6.17;;;;;;;16.20;48.95;98649.64;1749902;80;21679;-76
2021/03/16 11:54:50;;;;;;;6.70;5.58;;;;;;;16.18;48.93;98657.09;1757537;80;21159;-75
2021/03/16 11:57:46;;;;;;;9.43;6.22;;;;;;;16.18;48.97;98650.94;1743446;81;21144;-75
2021/03/16 12:00:34;;;;;;;8.83;6.17;;;;;;;16.20;48.98;98653.66;1724576;81;21167;-77
2021/03/16 12:03:22;;;;;;;8.85;6.17;;;;;;;16.29;48.87;98649.60;1722568;82;21167;-76
2021/03/16 12:06:12;;;;;;;8.75;5.45;;;;;;;16.39;48.71;98648.22;1739359;81;21373;-76
2021/03/16 12:08:59;;;;;;;7.80;6.22;;;;;;;16.50;48.50;98637.49;1747897;81;21164;-76
2021/03/16 12:11:48;;;;;;;7.03;5.70;;;;;;;16.62;48.31;98641.50;1764881;80;21215;-75
2021/03/16 12:14:45;;;;;;;8.23;6.30;;;;;;;16.76;48.09;98634.56;1741614;80;21193;-77
2021/03/16 12:17:32;;;;;;;7.92;5.72;;;;;;;16.90;47.86;98641.31;1714344;83;21136;-75
2021/03/16 12:20:23;;;;;;;8.55;5.67;;;;;;;17.04;47.62;98641.36;1702379;83;21633;-75
2021/03/16 12:23:14;;;;;;;6.70;5.70;;;;;;;17.20;47.46;98641.67;1702116;84;21180;-76
2021/03/16 12:26:07;;;;;;;5.87;5.28;;;;;;;17.37;47.29;98643.89;1722893;83;21179;-75
2021/03/16 12:28:57;;;;;;;7.10;5.67;;;;;;;17.52;47.10;98649.25;1713921;83;21210;-75
2021/03/16 12:31:46;;;;;;;7.95;5.90;;;;;;;17.62;46.90;98644.09;1686674;84;21227;-78
2021/03/16 12:34:34;;;;;;;8.18;6.20;;;;;;;17.66;46.74;98656.78;1721515;83;21203;-75
2021/03/16 12:37:20;;;;;;;6.72;5.28;;;;;;;17.70;46.58;98646.38;1711255;83;21290;-76
2021/03/16 12:40:07;;;;;;;7.95;5.37;;;;;;;17.77;46.60;98647.05;1696953;83;21565;-76
2021/03/16 12:42:54;;;;;;;6.58;4.95;;;;;;;17.86;46.63;98650.98;1706568;83;21152;-75